Time;durP1;ratioP1;P1;durP2;ratioP2;P2;SDS_P1;SDS_P2;PMS_P1;PMS_P2;Temp;Humidity;BMP_temperature;BMP_pressure;BME280_temperature;BME280_humidity;BME280_pressure;Samples;Min_cycle;Max_cycle;Signal;HPM_P1;HPM_P2
2022/07/23 00:00:08;;;;;;;9.30;7.32;;;22.20;99.90;;;;;;5014950;28;20471;-74
2022/07/23 00:02:34;;;;;;;8.68;7.32;;;22.30;99.90;;;;;;5021680;28;20480;-74
2022/07/23 00:05:00;;;;;;;9.85;7.55;;;22.10;99.90;;;;;;5018332;28;20045;-74
2022/07/23 00:07:25;;;;;;;10.32;7.25;;;21.80;99.90;;;;;;5028047;28;20026;-74
2022/07/23 00:09:51;;;;;;;9.48;7.85;;;21.20;99.90;;;;;;5034829;28;20439;-74
2022/07/23 00:12:16;;;;;;;9.23;7.72;;;21.10;99.90;;;;;;5017702;28;20034;-74
2022/07/23 00:14:42;;;;;;;10.05;7.55;;;21.20;99.90;;;;;;5031342;28;20100;-74
2022/07/23 00:17:08;;;;;;;8.40;7.60;;;21.10;99.90;;;;;;5028145;28;20065;-74
2022/07/23 00:19:33;;;;;;;10.02;7.90;;;21.00;99.90;;;;;;5037864;28;20029;-74
2022/07/23 00:21:59;;;;;;;8.50;7.70;;;21.00;99.90;;;;;;5037497;28;20450;-73
2022/07/23 00:24:24;;;;;;;9.68;8.15;;;20.90;99.90;;;;;;5036588;28;20025;-73
2022/07/23 00:26:50;;;;;;;10.15;7.55;;;21.10;99.90;;;;;;5037831;28;20469;-73
2022/07/23 00:29:15;;;;;;;9.52;7.78;;;20.80;99.90;;;;;;5036619;28;20029;-73
2022/07/23 00:31:41;;;;;;;9.45;7.53;;;20.90;99.90;;;;;;5027691;28;20057;-73
2022/07/23 00:34:06;;;;;;;8.63;7.72;;;20.90;99.90;;;;;;5018075;28;20029;-73
2022/07/23 00:36:32;;;;;;;12.45;7.82;;;21.20;99.90;;;;;;5017956;28;20030;-73
2022/07/23 00:38:58;;;;;;;8.40;7.45;;;21.50;99.90;;;;;;5017824;28;20030;-73
2022/07/23 00:41:23;;;;;;;9.13;7.85;;;21.60;99.90;;;;;;5017380;28;20029;-73
2022/07/23 00:43:49;;;;;;;8.20;6.85;;;21.50;99.90;;;;;;5017952;28;20104;-73
2022/07/23 00:46:22;;;;;;;8.15;6.85;;;21.80;99.90;;;;;;5017948;28;20500;-73
2022/07/23 00:48:48;;;;;;;8.57;6.70;;;21.90;99.90;;;;;;5017918;28;20420;-73
2022/07/23 00:51:15;;;;;;;7.90;6.50;;;22.00;99.90;;;;;;5017395;28;20022;-73
2022/07/23 00:53:42;;;;;;;8.60;6.57;;;22.00;99.90;;;;;;5017825;28;20536;-73
2022/07/23 00:56:08;;;;;;;7.45;6.68;;;22.20;99.90;;;;;;5017893;28;20101;-73
2022/07/23 00:58:35;;;;;;;7.47;6.18;;;22.00;99.90;;;;;;5017738;28;20041;-73
2022/07/23 01:01:01;;;;;;;7.97;6.20;;;21.80;99.90;;;;;;5017169;28;20523;-73
2022/07/23 01:03:27;;;;;;;7.95;6.90;;;21.90;99.90;;;;;;5017793;28;20086;-73
2022/07/23 01:05:53;;;;;;;7.95;7.15;;;21.50;99.90;;;;;;5017765;28;20053;-74
2022/07/23 01:08:19;;;;;;;11.38;6.93;;;21.80;99.90;;;;;;5021511;28;20433;-74
2022/07/23 01:10:47;;;;;;;7.78;6.70;;;22.00;99.90;;;;;;5026378;28;20026;-74
2022/07/23 01:13:12;;;;;;;7.07;6.38;;;21.70;99.90;;;;;;5017682;28;20022;-73
2022/07/23 01:15:39;;;;;;;11.07;6.80;;;21.70;99.90;;;;;;5014251;28;20396;-74
2022/07/23 01:18:05;;;;;;;8.13;6.30;;;21.70;99.90;;;;;;5014621;28;20040;-74
2022/07/23 01:20:32;;;;;;;7.35;6.60;;;21.90;99.90;;;;;;5013763;28;20038;-74
2022/07/23 01:22:58;;;;;;;7.90;7.05;;;21.90;99.90;;;;;;5014504;28;20018;-73
2022/07/23 01:25:24;;;;;;;8.93;6.70;;;21.90;99.90;;;;;;5014413;28;20026;-73
2022/07/23 01:27:52;;;;;;;7.43;6.65;;;21.80;99.90;;;;;;5027776;28;20030;-72
2022/07/23 01:30:17;;;;;;;7.78;6.95;;;21.40;99.90;;;;;;5013782;28;20511;-73
2022/07/23 01:32:43;;;;;;;9.40;7.10;;;21.10;99.90;;;;;;5018298;28;20037;-72
2022/07/23 01:35:09;;;;;;;9.88;7.05;;;20.90;99.90;;;;;;5023390;28;20068;-72
2022/07/23 01:37:36;;;;;;;10.43;6.90;;;20.80;99.90;;;;;;5014337;28;20026;-72
2022/07/23 01:40:02;;;;;;;10.45;7.20;;;21.10;99.90;;;;;;5014263;28;20037;-72
2022/07/23 01:42:28;;;;;;;9.77;6.65;;;21.40;99.90;;;;;;5017976;28;20107;-73
2022/07/23 01:44:53;;;;;;;9.27;7.35;;;21.50;99.90;;;;;;5033898;28;20507;-71
2022/07/23 01:47:19;;;;;;;9.57;6.75;;;21.30;99.90;;;;;;5021740;28;20038;-72
2022/07/23 01:49:44;;;;;;;9.02;7.85;;;21.20;99.90;;;;;;5013883;28;20037;-72
2022/07/23 01:52:10;;;;;;;12.23;7.88;;;21.10;99.90;;;;;;5013050;28;20025;-72
2022/07/23 01:54:38;;;;;;;9.82;7.97;;;20.50;99.90;;;;;;5013819;28;20459;-72
2022/07/23 01:57:04;;;;;;;9.25;7.78;;;20.10;99.90;;;;;;5013872;28;20022;-73
2022/07/23 01:59:30;;;;;;;11.43;8.23;;;20.10;99.90;;;;;;5013819;28;20453;-73
2022/07/23 02:01:56;;;;;;;9.57;7.82;;;20.20;99.90;;;;;;5012601;28;20025;-72
2022/07/23 02:04:24;;;;;;;9.40;7.55;;;20.50;99.90;;;;;;5020572;28;20461;-71
2022/07/23 02:06:50;;;;;;;8.48;7.15;;;20.50;99.90;;;;;;5025670;28;20104;-72
2022/07/23 02:09:16;;;;;;;7.95;7.15;;;20.70;99.90;;;;;;5021815;28;20025;-71
2022/07/23 02:11:42;;;;;;;11.32;7.18;;;20.70;99.90;;;;;;5011638;28;20054;-72
2022/07/23 02:14:07;;;;;;;12.13;7.65;;;20.80;99.90;;;;;;5013636;28;20064;-72
2022/07/23 02:16:33;;;;;;;8.95;7.53;;;20.90;99.90;;;;;;5007716;28;20037;-71
2022/07/23 02:18:58;;;;;;;10.70;7.35;;;20.70;99.90;;;;;;5013252;28;20030;-71
2022/07/23 02:21:24;;;;;;;9.57;7.32;;;20.70;99.90;;;;;;5012695;28;20053;-71
2022/07/23 02:23:50;;;;;;;8.52;7.35;;;20.80;99.90;;;;;;5013342;28;20026;-72
2022/07/23 02:26:15;;;;;;;9.35;7.50;;;20.50;99.90;;;;;;5013193;28;20037;-73
2022/07/23 02:28:41;;;;;;;7.95;7.07;;;20.80;99.90;;;;;;5013294;28;20077;-73
2022/07/23 02:31:07;;;;;;;9.80;7.03;;;20.70;99.90;;;;;;5012705;28;20022;-72
2022/07/23 02:33:33;;;;;;;9.30;7.13;;;20.80;99.90;;;;;;5013332;28;20034;-73
2022/07/23 02:35:59;;;;;;;9.45;7.30;;;20.70;99.90;;;;;;5030273;28;20100;-72
2022/07/23 02:38:25;;;;;;;8.93;7.88;;;20.30;99.90;;;;;;5032919;28;20027;-72
2022/07/23 02:40:50;;;;;;;11.38;7.97;;;19.50;99.90;;;;;;5013785;28;20109;-73
2022/07/23 02:43:16;;;;;;;8.20;7.20;;;19.50;99.90;;;;;;5013045;28;20569;-73
2022/07/23 02:45:42;;;;;;;10.48;7.30;;;19.40;99.90;;;;;;5026100;28;20396;-73
2022/07/23 02:48:07;;;;;;;14.68;7.38;;;19.70;99.90;;;;;;5012855;28;20493;-73
2022/07/23 02:50:33;;;;;;;7.75;7.05;;;19.80;99.90;;;;;;5012421;28;20037;-73
2022/07/23 02:52:58;;;;;;;11.30;7.30;;;20.00;99.90;;;;;;5023191;28;20369;-73
2022/07/23 02:55:24;;;;;;;9.65;7.43;;;20.20;99.90;;;;;;5032496;28;20072;-73
2022/07/23 02:57:50;;;;;;;7.75;6.95;;;20.30;99.90;;;;;;5032526;28;20037;-73
2022/07/23 03:00:15;;;;;;;8.95;7.07;;;20.30;99.90;;;;;;5031845;28;20030;-73
2022/07/23 03:02:41;;;;;;;9.68;7.40;;;20.50;99.90;;;;;;5018295;28;20025;-73
2022/07/23 03:05:07;;;;;;;9.32;8.07;;;20.10;99.90;;;;;;5012570;28;20481;-73
2022/07/23 03:07:33;;;;;;;10.85;8.45;;;19.90;99.90;;;;;;5011345;28;20028;-73
2022/07/23 03:09:58;;;;;;;11.27;8.02;;;19.20;99.90;;;;;;5016517;28;20100;-73
2022/07/23 03:12:24;;;;;;;9.32;8.35;;;19.00;99.90;;;;;;5031707;28;20079;-73
2022/07/23 03:14:49;;;;;;;11.20;7.82;;;19.20;99.90;;;;;;5032108;28;20021;-74
2022/07/23 03:17:15;;;;;;;11.27;8.50;;;19.60;99.90;;;;;;5032099;28;20083;-74
2022/07/23 03:19:41;;;;;;;13.30;7.50;;;19.60;99.90;;;;;;5030823;28;20021;-74
2022/07/23 03:22:07;;;;;;;9.10;7.80;;;19.50;99.90;;;;;;5030287;28;20503;-72
2022/07/23 03:27:16;;;;;;;9.00;7.70;;;19.70;99.90;;;;;;5019341;28;20132;-73
2022/07/23 03:29:42;;;;;;;9.02;7.57;;;19.90;99.90;;;;;;5018311;28;20108;-73
2022/07/23 03:32:08;;;;;;;9.23;8.32;;;19.60;99.90;;;;;;5031366;28;20026;-73
2022/07/23 03:34:33;;;;;;;9.18;7.85;;;19.70;99.90;;;;;;5012294;28;20476;-73
2022/07/23 03:36:59;;;;;;;9.82;7.75;;;19.50;99.90;;;;;;5023725;28;20040;-73
2022/07/23 03:39:24;;;;;;;10.57;8.75;;;19.40;99.90;;;;;;5011855;28;20555;-73
2022/07/23 03:41:50;;;;;;;9.77;8.10;;;19.50;99.90;;;;;;5010213;28;20026;-73
2022/07/23 03:44:15;;;;;;;9.27;8.38;;;19.00;99.90;;;;;;5030942;28;20100;-73
2022/07/23 03:46:41;;;;;;;9.52;8.52;;;18.60;99.90;;;;;;5019521;28;20422;-73
2022/07/23 03:49:07;;;;;;;11.88;9.35;;;18.80;99.90;;;;;;5011947;28;20419;-73
2022/07/23 03:51:32;;;;;;;9.80;8.82;;;18.70;99.90;;;;;;5023826;28;20415;-73
2022/07/23 03:53:58;;;;;;;13.57;9.10;;;18.80;99.90;;;;;;5012885;28;20544;-73
2022/07/23 03:56:24;;;;;;;10.15;8.98;;;19.30;99.90;;;;;;5022596;28;20036;-73
2022/07/23 03:58:49;;;;;;;10.77;8.77;;;19.40;99.90;;;;;;5031413;28;20033;-72
2022/07/23 04:01:15;;;;;;;10.00;8.98;;;19.30;99.90;;;;;;5031117;28;20424;-73
2022/07/23 04:03:41;;;;;;;10.88;9.02;;;19.60;99.90;;;;;;5013374;28;20026;-72
2022/07/23 04:06:07;;;;;;;10.77;9.30;;;19.60;99.90;;;;;;5011743;28;20037;-73
2022/07/23 04:08:32;;;;;;;10.85;8.68;;;19.60;99.90;;;;;;5011888;28;20026;-73
2022/07/23 04:10:58;;;;;;;10.68;9.02;;;19.70;99.90;;;;;;5011185;28;20076;-72
2022/07/23 04:13:24;;;;;;;10.15;8.85;;;19.70;99.90;;;;;;5029795;28;20476;-73
2022/07/23 04:15:50;;;;;;;10.10;8.88;;;19.60;99.90;;;;;;5031374;28;20036;-73
2022/07/23 04:18:17;;;;;;;9.43;8.43;;;19.40;99.90;;;;;;5011917;28;20030;-72
2022/07/23 04:20:43;;;;;;;12.52;9.07;;;19.50;99.90;;;;;;5010991;28;20022;-73
2022/07/23 04:23:12;;;;;;;10.82;8.90;;;19.50;99.90;;;;;;5024893;28;20029;-73
2022/07/23 04:25:38;;;;;;;14.40;9.50;;;19.50;99.90;;;;;;5011664;28;20104;-73
2022/07/23 04:28:03;;;;;;;9.88;8.68;;;19.50;99.90;;;;;;5024697;28;20531;-72
2022/07/23 04:30:29;;;;;;;10.35;9.25;;;19.90;99.90;;;;;;5009718;28;20026;-73
2022/07/23 04:32:55;;;;;;;11.43;9.18;;;19.80;99.90;;;;;;5017616;28;20430;-72
2022/07/23 04:35:20;;;;;;;10.98;9.70;;;19.50;99.90;;;;;;5031232;28;20479;-72
2022/07/23 04:37:46;;;;;;;12.30;10.02;;;19.30;99.90;;;;;;5031148;28;20108;-72
2022/07/23 04:40:12;;;;;;;10.25;9.15;;;19.30;99.90;;;;;;5017946;28;20038;-72
2022/07/23 04:42:38;;;;;;;11.23;9.15;;;19.50;99.90;;;;;;5011157;28;20025;-72
2022/07/23 04:45:05;;;;;;;12.05;9.77;;;19.80;99.90;;;;;;5011359;28;20076;-72
2022/07/23 04:47:31;;;;;;;13.40;9.30;;;20.10;99.90;;;;;;5011279;28;20030;-71
2022/07/23 04:49:57;;;;;;;11.05;9.07;;;20.20;99.90;;;;;;5012064;28;20026;-72
2022/07/23 04:52:23;;;;;;;11.52;8.88;;;20.40;99.90;;;;;;5014265;28;20038;-72
2022/07/23 04:54:48;;;;;;;9.95;8.95;;;20.40;99.90;;;;;;5014964;28;20044;-71
2022/07/23 04:57:14;;;;;;;10.82;9.35;;;20.40;99.90;;;;;;5028266;28;20113;-74
2022/07/23 04:59:39;;;;;;;10.82;8.63;;;20.40;99.90;;;;;;5010353;28;20037;-73
2022/07/23 05:02:05;;;;;;;12.13;9.73;;;20.40;99.90;;;;;;5013263;28;20022;-73
2022/07/23 05:04:31;;;;;;;11.02;9.68;;;20.60;99.90;;;;;;5014957;28;20026;-72
2022/07/23 05:06:57;;;;;;;12.95;9.45;;;20.70;99.90;;;;;;5033496;28;20021;-73
2022/07/23 05:09:22;;;;;;;10.20;9.20;;;20.70;99.90;;;;;;5034625;28;20026;-72
2022/07/23 05:11:48;;;;;;;12.45;10.07;;;20.80;99.90;;;;;;5032476;28;20392;-73
2022/07/23 05:14:14;;;;;;;10.57;9.48;;;20.80;99.90;;;;;;5034631;28;20026;-72
2022/07/23 05:16:39;;;;;;;12.57;9.90;;;21.10;99.90;;;;;;5015413;28;20030;-72
2022/07/23 05:19:05;;;;;;;10.10;8.75;;;21.20;99.90;;;;;;5014611;28;20045;-72
2022/07/23 05:21:30;;;;;;;10.43;9.38;;;21.50;99.90;;;;;;5013959;28;20051;-73
2022/07/23 05:23:56;;;;;;;14.80;9.68;;;21.60;99.90;;;;;;5014640;28;20018;-72
2022/07/23 05:26:21;;;;;;;15.07;9.32;;;21.70;99.90;;;;;;5019706;28;20057;-73
2022/07/23 05:28:47;;;;;;;10.27;9.25;;;21.90;99.90;;;;;;5022363;28;20013;-72
2022/07/23 05:31:13;;;;;;;11.88;10.65;;;21.70;99.90;;;;;;5014016;28;20026;-73
2022/07/23 05:33:38;;;;;;;13.95;9.82;;;22.00;99.90;;;;;;5014428;28;20030;-73
2022/07/23 05:36:04;;;;;;;10.43;9.27;;;22.40;99.90;;;;;;5014201;28;20043;-72
2022/07/23 05:38:32;;;;;;;11.88;9.40;;;22.50;99.90;;;;;;5014344;28;20033;-73
2022/07/23 05:40:57;;;;;;;10.82;9.73;;;22.50;99.90;;;;;;5013407;28;20041;-72
2022/07/23 05:43:23;;;;;;;10.68;9.57;;;22.40;99.90;;;;;;5014245;28;20030;-72
2022/07/23 05:45:49;;;;;;;11.82;9.18;;;22.30;99.90;;;;;;5014089;28;20100;-72
2022/07/23 05:48:14;;;;;;;10.95;9.85;;;22.40;99.90;;;;;;5014005;28;20109;-72
2022/07/23 05:50:40;;;;;;;9.82;8.93;;;22.30;99.90;;;;;;5017937;28;20030;-72
2022/07/23 05:53:07;;;;;;;11.82;9.32;;;22.00;99.90;;;;;;5034076;28;20053;-73
2022/07/23 05:55:32;;;;;;;11.32;10.13;;;21.90;99.90;;;;;;5019041;28;20132;-73
2022/07/23 05:57:59;;;;;;;11.63;9.48;;;21.90;99.90;;;;;;5033848;28;20032;-73
2022/07/23 06:00:25;;;;;;;10.30;9.40;;;21.80;99.90;;;;;;5032720;28;20037;-72
2022/07/23 06:02:51;;;;;;;12.70;9.80;;;22.00;99.90;;;;;;5020541;28;20518;-73
2022/07/23 06:05:17;;;;;;;14.30;9.70;;;22.00;99.90;;;;;;5027006;28;20026;-73
2022/07/23 06:07:43;;;;;;;10.45;9.30;;;22.00;99.90;;;;;;5013799;28;20022;-73
2022/07/23 06:10:09;;;;;;;11.50;9.23;;;22.10;99.90;;;;;;5030790;28;20038;-72
2022/07/23 06:12:35;;;;;;;12.60;9.05;;;22.40;99.90;;;;;;5021370;28;20170;-73
2022/07/23 06:15:01;;;;;;;10.27;9.27;;;22.50;99.90;;;;;;5031807;28;20468;-72
2022/07/23 06:17:27;;;;;;;12.07;10.10;;;22.70;99.90;;;;;;5033452;28;20026;-72
2022/07/23 06:19:53;;;;;;;11.57;9.88;;;22.70;99.90;;;;;;5015091;28;20117;-72
2022/07/23 06:22:19;;;;;;;13.00;10.10;;;22.90;99.90;;;;;;5013098;28;20599;-72
2022/07/23 06:24:45;;;;;;;12.07;10.23;;;23.20;99.90;;;;;;5031393;28;20036;-72
2022/07/23 06:27:10;;;;;;;10.75;9.65;;;23.50;99.90;;;;;;5033167;28;20025;-73
2022/07/23 06:29:36;;;;;;;11.65;9.77;;;23.30;99.90;;;;;;5028527;28;20030;-72
2022/07/23 06:32:01;;;;;;;12.45;9.85;;;22.80;99.90;;;;;;5012659;28;20042;-72
2022/07/23 06:34:27;;;;;;;11.05;9.75;;;23.00;99.90;;;;;;5013252;28;20029;-72
2022/07/23 06:36:53;;;;;;;12.90;10.05;;;23.10;99.90;;;;;;5013206;28;20030;-72
2022/07/23 06:39:18;;;;;;;10.63;9.30;;;23.10;99.90;;;;;;5013026;28;20499;-72
2022/07/23 06:41:44;;;;;;;11.25;10.10;;;23.20;99.90;;;;;;5012500;28;20018;-72
2022/07/23 06:44:09;;;;;;;13.90;10.23;;;23.30;99.90;;;;;;5011736;28;20032;-72
2022/07/23 06:46:35;;;;;;;10.43;9.32;;;23.30;99.90;;;;;;5024287;28;20018;-72
2022/07/23 06:49:01;;;;;;;11.52;9.60;;;23.20;99.90;;;;;;5032459;28;20109;-72
2022/07/23 06:51:26;;;;;;;11.93;9.70;;;23.20;99.90;;;;;;5020697;28;20396;-72
2022/07/23 06:53:52;;;;;;;12.82;9.45;;;23.30;99.90;;;;;;5030982;28;20071;-72
2022/07/23 06:56:17;;;;;;;11.50;9.18;;;23.40;99.90;;;;;;5020996;28;20428;-73
2022/07/23 06:58:43;;;;;;;11.90;9.77;;;23.40;99.90;;;;;;5012679;28;20034;-72
2022/07/23 07:01:08;;;;;;;9.85;8.77;;;23.60;99.90;;;;;;5012199;28;20477;-72
2022/07/23 07:03:34;;;;;;;10.80;9.70;;;23.60;99.90;;;;;;5012702;28;20026;-72
2022/07/23 07:06:00;;;;;;;10.18;8.95;;;23.60;99.90;;;;;;5012645;28;20022;-72
2022/07/23 07:08:25;;;;;;;11.00;9.45;;;23.50;99.90;;;;;;5012615;28;20026;-72
2022/07/23 07:10:51;;;;;;;11.43;9.02;;;23.50;99.90;;;;;;5011933;28;20025;-72
2022/07/23 07:13:16;;;;;;;11.40;8.55;;;23.10;99.90;;;;;;5011717;28;20053;-72
2022/07/23 07:15:42;;;;;;;11.45;9.57;;;23.10;99.90;;;;;;5012474;28;20032;-72
2022/07/23 07:18:08;;;;;;;11.05;9.43;;;23.00;99.90;;;;;;5012374;28;20107;-72
2022/07/23 07:20:33;;;;;;;10.18;9.02;;;23.00;99.90;;;;;;5011708;28;20033;-72
2022/07/23 07:22:59;;;;;;;10.80;9.70;;;23.10;99.90;;;;;;5012308;28;20029;-72
2022/07/23 07:25:25;;;;;;;10.00;9.00;;;23.10;99.90;;;;;;5023699;28;20036;-72
2022/07/23 07:27:50;;;;;;;11.18;8.73;;;23.20;99.90;;;;;;5032092;28;20030;-72
2022/07/23 07:30:16;;;;;;;10.20;9.05;;;23.00;99.90;;;;;;5031414;28;20064;-72
2022/07/23 07:32:42;;;;;;;8.50;7.60;;;22.90;99.90;;;;;;5027589;28;20079;-72
2022/07/23 07:35:08;;;;;;;9.68;7.35;;;22.90;99.90;;;;;;5012170;28;20088;-72
2022/07/23 07:37:33;;;;;;;9.35;7.40;;;22.90;99.90;;;;;;5025280;28;20037;-72
2022/07/23 07:39:59;;;;;;;9.50;7.13;;;22.60;99.90;;;;;;5012083;28;20500;-72
2022/07/23 07:42:24;;;;;;;10.38;7.40;;;22.60;99.90;;;;;;5028593;28;20123;-73
2022/07/23 07:44:50;;;;;;;8.10;7.00;;;22.50;99.90;;;;;;5019331;28;20072;-73
2022/07/23 07:47:16;;;;;;;9.52;6.05;;;22.50;99.90;;;;;;5009910;28;20477;-73
2022/07/23 07:49:42;;;;;;;7.05;6.35;;;22.50;99.90;;;;;;5011584;28;20048;-73
2022/07/23 07:52:08;;;;;;;6.93;6.30;;;22.10;99.90;;;;;;5024752;28;20453;-73
2022/07/23 07:54:34;;;;;;;8.20;6.20;;;21.80;99.90;;;;;;5021884;28;20025;-74
2022/07/23 07:56:59;;;;;;;7.70;5.97;;;21.90;99.90;;;;;;5013731;28;20077;-74
2022/07/23 07:59:25;;;;;;;8.20;6.05;;;22.20;99.90;;;;;;5011752;28;20096;-74
2022/07/23 08:01:51;;;;;;;7.35;6.50;;;22.30;99.90;;;;;;5023392;28;20421;-74
2022/07/23 08:04:17;;;;;;;8.32;6.38;;;22.50;99.90;;;;;;5022193;28;20080;-74
2022/07/23 08:06:42;;;;;;;8.60;6.20;;;23.20;99.90;;;;;;5018275;28;20029;-74
2022/07/23 08:09:08;;;;;;;9.93;7.00;;;23.20;99.90;;;;;;5021340;28;20033;-74
2022/07/23 08:11:33;;;;;;;8.63;6.40;;;22.90;99.90;;;;;;5024523;28;20053;-74
2022/07/23 08:13:59;;;;;;;7.75;6.45;;;22.70;99.90;;;;;;5021230;28;20025;-74
2022/07/23 08:16:25;;;;;;;7.20;6.20;;;22.80;99.90;;;;;;5027846;28;20029;-74
2022/07/23 08:18:50;;;;;;;9.27;6.50;;;22.90;99.90;;;;;;5021598;28;20030;-74
2022/07/23 08:21:16;;;;;;;10.05;6.90;;;22.60;99.90;;;;;;5016168;28;20025;-74
2022/07/23 08:23:41;;;;;;;8.35;7.55;;;22.20;99.90;;;;;;5022200;28;20045;-74
2022/07/23 08:26:07;;;;;;;10.45;7.40;;;21.90;99.90;;;;;;5028977;28;20081;-74
2022/07/23 08:28:33;;;;;;;8.27;7.47;;;22.00;99.90;;;;;;5025461;28;20502;-73
2022/07/23 08:30:59;;;;;;;9.20;7.00;;;22.40;99.90;;;;;;5022391;28;20032;-73
2022/07/23 08:33:25;;;;;;;9.88;7.40;;;22.10;99.90;;;;;;5035418;28;20044;-75
2022/07/23 08:35:52;;;;;;;9.73;7.30;;;22.70;99.90;;;;;;5021656;28;20112;-73
2022/07/23 08:38:20;;;;;;;9.68;7.07;;;22.50;99.90;;;;;;5025461;28;20054;-73
2022/07/23 08:40:49;;;;;;;8.68;7.13;;;22.30;99.90;;;;;;5017758;28;20022;-73
2022/07/23 08:43:26;;;;;;;8.75;7.72;;;22.20;99.90;;;;;;5024416;28;20033;-74
2022/07/23 08:45:56;;;;;;;11.52;7.25;;;21.90;99.90;;;;;;5028692;28;20073;-74
2022/07/23 08:48:27;;;;;;;11.15;7.07;;;21.80;99.90;;;;;;5028130;28;20514;-73
2022/07/23 08:50:55;;;;;;;8.57;7.57;;;21.90;99.90;;;;;;5028223;28;20036;-74
2022/07/23 08:53:21;;;;;;;7.95;7.05;;;22.40;99.90;;;;;;5028972;28;20109;-73
2022/07/23 08:55:49;;;;;;;9.10;7.45;;;22.50;99.90;;;;;;5027893;28;20826;-74
2022/07/23 08:58:15;;;;;;;10.43;6.60;;;22.80;99.90;;;;;;5029388;28;20388;-74
2022/07/23 09:00:42;;;;;;;8.77;7.32;;;23.40;99.90;;;;;;5026951;28;20041;-73
2022/07/23 09:03:13;;;;;;;8.45;6.88;;;23.40;99.90;;;;;;5026901;28;20056;-74
2022/07/23 09:05:38;;;;;;;8.10;7.07;;;23.40;99.90;;;;;;5023269;28;20017;-74
2022/07/23 09:08:35;;;;;;;9.93;6.78;;;23.20;99.90;;;;;;5019570;28;20029;-73
2022/07/23 09:11:03;;;;;;;7.60;6.70;;;23.40;99.90;;;;;;5015373;28;20041;-73
2022/07/23 09:13:39;;;;;;;11.07;7.05;;;23.60;99.90;;;;;;5014864;28;20034;-73
2022/07/23 09:16:14;;;;;;;8.68;7.07;;;23.90;99.90;;;;;;5015660;28;20503;-73
2022/07/23 09:18:50;;;;;;;8.88;7.07;;;23.70;99.90;;;;;;5025827;28;20104;-73
2022/07/23 09:21:30;;;;;;;9.10;7.25;;;24.00;99.90;;;;;;5027506;28;20022;-73
2022/07/23 09:24:03;;;;;;;10.52;7.13;;;23.90;99.90;;;;;;5026518;28;20097;-73
2022/07/23 09:26:33;;;;;;;9.57;7.40;;;24.20;99.90;;;;;;5020880;28;20026;-73
2022/07/23 09:29:13;;;;;;;8.45;7.50;;;24.20;99.90;;;;;;5034328;28;20029;-73
2022/07/23 09:31:46;;;;;;;11.60;7.97;;;24.90;99.90;;;;;;5024187;28;20453;-73
2022/07/23 09:34:15;;;;;;;8.73;7.55;;;25.10;99.90;;;;;;5017392;28;20018;-73
2022/07/23 09:36:41;;;;;;;11.20;7.60;;;25.40;99.90;;;;;;5023588;28;20018;-74
2022/07/23 09:39:08;;;;;;;9.18;6.97;;;25.30;99.90;;;;;;5026495;28;20559;-74
2022/07/23 09:41:35;;;;;;;10.73;8.43;;;25.00;99.90;;;;;;5022480;28;20029;-74
2022/07/23 09:44:18;;;;;;;10.23;8.25;;;25.20;99.90;;;;;;5030257;28;20022;-74
2022/07/23 09:46:46;;;;;;;9.07;7.75;;;25.00;99.90;;;;;;5026921;28;20112;-73
2022/07/23 09:49:20;;;;;;;11.02;7.93;;;24.40;99.90;;;;;;5007745;28;20036;-74
2022/07/23 09:51:47;;;;;;;9.75;8.13;;;24.30;99.90;;;;;;5020189;28;20036;-74
2022/07/23 09:54:37;;;;;;;13.02;8.23;;;24.50;99.90;;;;;;5026027;28;20488;-73
2022/07/23 09:57:09;;;;;;;10.25;8.25;;;24.60;99.90;;;;;;5027275;28;20026;-74
2022/07/23 09:59:38;;;;;;;10.35;9.27;;;24.70;99.90;;;;;;5025051;28;20029;-74
2022/07/23 10:02:05;;;;;;;10.02;8.48;;;24.90;99.90;;;;;;5033144;28;20028;-73
2022/07/23 10:04:32;;;;;;;11.50;8.27;;;24.90;99.90;;;;;;5033676;28;20097;-73
2022/07/23 10:07:00;;;;;;;9.40;8.48;;;24.70;99.90;;;;;;5027004;28;20018;-74
2022/07/23 10:09:31;;;;;;;12.50;8.20;;;24.90;99.90;;;;;;5027304;28;20036;-74
2022/07/23 10:14:39;;;;;;;10.27;9.18;;;25.70;99.90;;;;;;5029696;28;20419;-74
2022/07/23 10:17:05;;;;;;;10.73;9.65;;;25.70;99.90;;;;;;5024033;28;20029;-74
2022/07/23 10:19:32;;;;;;;10.57;9.57;;;25.50;99.90;;;;;;5025567;28;20034;-74
2022/07/23 10:22:01;;;;;;;10.20;9.05;;;25.10;99.90;;;;;;5022537;28;20104;-74
2022/07/23 10:24:46;;;;;;;11.85;9.30;;;25.00;99.90;;;;;;5019572;28;20048;-73
2022/07/23 10:27:42;;;;;;;10.75;9.65;;;25.40;99.90;;;;;;5026314;28;20027;-73
2022/07/23 10:30:15;;;;;;;9.88;8.85;;;25.60;99.90;;;;;;5021425;28;20155;-74
2022/07/23 10:33:09;;;;;;;10.82;9.20;;;26.30;99.90;;;;;;5019892;28;20037;-74
2022/07/23 10:35:48;;;;;;;12.50;8.15;;;26.80;99.90;;;;;;5018877;28;20022;-74
2022/07/23 10:38:35;;;;;;;10.15;8.68;;;25.90;99.90;;;;;;5022370;28;20021;-73
2022/07/23 10:41:04;;;;;;;11.35;9.38;;;25.70;99.90;;;;;;5005425;28;20113;-74
2022/07/23 10:43:30;;;;;;;10.23;9.10;;;25.70;99.90;;;;;;5019701;28;20492;-73
2022/07/23 10:46:16;;;;;;;10.75;8.63;;;26.00;99.90;;;;;;5018258;28;20492;-74
2022/07/23 10:48:42;;;;;;;13.10;8.32;;;26.00;99.90;;;;;;5026110;28;20175;-74
2022/07/23 10:51:15;;;;;;;10.93;7.85;;;26.20;99.90;;;;;;5020981;28;20072;-73
2022/07/23 10:53:58;;;;;;;10.75;8.57;;;26.20;99.90;;;;;;5016284;28;20416;-75
2022/07/23 10:56:54;;;;;;;8.90;8.00;;;25.50;99.90;;;;;;5011602;28;20076;-74
2022/07/23 10:59:20;;;;;;;9.43;8.27;;;26.30;99.90;;;;;;5012327;28;20495;-74
2022/07/23 11:01:46;;;;;;;9.73;8.60;;;26.40;99.90;;;;;;5027759;28;20026;-74
2022/07/23 11:04:13;;;;;;;10.85;8.63;;;26.90;99.90;;;;;;5021037;28;20132;-73
2022/07/23 11:06:50;;;;;;;10.30;8.82;;;27.20;99.90;;;;;;5029517;28;20026;-74
2022/07/23 11:09:38;;;;;;;9.65;8.00;;;27.20;99.90;;;;;;5012882;28;20026;-73
2022/07/23 11:12:22;;;;;;;8.93;7.90;;;27.10;99.90;;;;;;4999783;28;20025;-75
2022/07/23 11:15:06;;;;;;;8.77;7.97;;;27.00;99.90;;;;;;5012405;28;20034;-73
2022/07/23 11:17:51;;;;;;;9.15;8.27;;;27.20;99.90;;;;;;5012604;28;20392;-71
2022/07/23 11:20:20;;;;;;;10.70;8.73;;;27.70;99.90;;;;;;5011589;28;20053;-72
2022/07/23 11:22:47;;;;;;;9.00;8.10;;;27.10;99.90;;;;;;5032184;28;20033;-72
2022/07/23 11:25:34;;;;;;;10.20;8.90;;;27.40;99.90;;;;;;5032111;28;20049;-72
2022/07/23 11:28:17;;;;;;;9.60;8.60;;;26.90;99.90;;;;;;5013593;28;20029;-72
2022/07/23 11:30:44;;;;;;;11.60;8.90;;;27.20;99.90;;;;;;5010313;28;20424;-72
2022/07/23 11:33:10;;;;;;;9.70;8.80;;;27.00;99.90;;;;;;5012234;28;20412;-73
2022/07/23 11:35:37;;;;;;;9.63;8.70;;;27.30;99.90;;;;;;5012542;28;20022;-72
2022/07/23 11:38:11;;;;;;;9.95;8.95;;;27.90;99.90;;;;;;5019824;28;20037;-72
2022/07/23 11:40:37;;;;;;;9.60;8.60;;;27.90;99.90;;;;;;5011669;28;20033;-72
2022/07/23 11:43:07;;;;;;;8.90;7.93;;;27.40;99.90;;;;;;5007636;28;20062;-72
2022/07/23 11:45:38;;;;;;;9.48;8.38;;;27.50;99.90;;;;;;5007836;28;20397;-72
2022/07/23 11:48:06;;;;;;;9.13;7.60;;;27.20;99.90;;;;;;5012212;28;20033;-72
2022/07/23 11:50:31;;;;;;;8.75;7.95;;;27.50;99.90;;;;;;5011366;28;20029;-72
2022/07/23 11:52:58;;;;;;;9.13;7.85;;;27.30;99.90;;;;;;5011734;28;20034;-72
2022/07/23 11:55:24;;;;;;;9.60;7.70;;;27.90;99.90;;;;;;5010651;28;20480;-72
2022/07/23 11:57:52;;;;;;;9.65;7.70;;;28.10;99.90;;;;;;5011825;28;20041;-72
2022/07/23 12:00:23;;;;;;;9.27;8.25;;;27.90;99.90;;;;;;5010634;28;20112;-72
2022/07/23 12:02:51;;;;;;;10.75;7.57;;;27.90;99.90;;;;;;5022863;28;20053;-72
2022/07/23 12:05:23;;;;;;;11.00;8.35;;;28.30;99.90;;;;;;5031489;28;20095;-72
2022/07/23 12:07:53;;;;;;;8.80;7.90;;;28.00;99.90;;;;;;5019505;28;20389;-71
2022/07/23 12:10:19;;;;;;;9.75;8.25;;;27.90;99.90;;;;;;5024671;28;20030;-71
2022/07/23 12:12:49;;;;;;;9.82;8.20;;;27.60;99.90;;;;;;5024382;28;20025;-71
2022/07/23 12:15:16;;;;;;;10.15;7.95;;;27.40;99.90;;;;;;5025176;28;20025;-71
2022/07/23 12:17:44;;;;;;;9.50;8.57;;;27.40;99.90;;;;;;5011707;28;20421;-72
2022/07/23 12:20:13;;;;;;;8.93;8.02;;;27.40;99.90;;;;;;4998631;28;20037;-72
2022/07/23 12:22:42;;;;;;;9.93;8.75;;;27.30;99.90;;;;;;5025202;28;20025;-72
2022/07/23 12:25:12;;;;;;;9.90;8.82;;;27.20;99.90;;;;;;5031270;28;20028;-72
2022/07/23 12:27:38;;;;;;;8.30;7.50;;;27.10;99.90;;;;;;5016722;28;20010;-72
2022/07/23 12:30:28;;;;;;;9.02;8.13;;;27.90;99.90;;;;;;5011628;28;20443;-71
2022/07/23 12:32:57;;;;;;;9.00;8.07;;;27.70;99.90;;;;;;5016518;28;20033;-72
2022/07/23 12:35:29;;;;;;;8.75;7.55;;;28.10;99.90;;;;;;5031171;28;20029;-72
2022/07/23 12:38:04;;;;;;;9.25;7.70;;;28.10;99.90;;;;;;5031218;28;20125;-72
2022/07/23 12:40:36;;;;;;;9.77;7.30;;;28.00;99.90;;;;;;5015176;28;20034;-72
2022/07/23 12:43:11;;;;;;;8.52;7.35;;;28.30;99.90;;;;;;5008005;28;20022;-72
2022/07/23 12:45:44;;;;;;;9.80;7.70;;;28.50;99.90;;;;;;5016158;28;20025;-72
2022/07/23 12:48:16;;;;;;;8.18;7.32;;;27.90;99.90;;;;;;5022454;28;20395;-72